sensor_id;sensor_type;location;lat;lon;timestamp;P1;durP1;ratioP1;P2;durP2;ratioP2
84121;SDS011;74217;51.106;17.084;2023-12-20T00:02:20;9.30;;;7.95;;
84121;SDS011;74217;51.106;17.084;2023-12-20T00:05:07;10.43;;;7.80;;
84121;SDS011;74217;51.106;17.084;2023-12-20T00:07:53;10.25;;;7.13;;
84121;SDS011;74217;51.106;17.084;2023-12-20T00:10:37;11.55;;;7.78;;
84121;SDS011;74217;51.106;17.084;2023-12-20T00:13:22;10.98;;;7.90;;
84121;SDS011;74217;51.106;17.084;2023-12-20T00:16:06;11.32;;;8.07;;
84121;SDS011;74217;51.106;17.084;2023-12-20T00:18:51;9.38;;;7.05;;
84121;SDS011;74217;51.106;17.084;2023-12-20T00:21:36;9.50;;;7.20;;
84121;SDS011;74217;51.106;17.084;2023-12-20T00:24:21;11.60;;;7.22;;
84121;SDS011;74217;51.106;17.084;2023-12-20T00:27:05;9.63;;;7.63;;
84121;SDS011;74217;51.106;17.084;2023-12-20T00:29:50;9.30;;;7.75;;
84121;SDS011;74217;51.106;17.084;2023-12-20T00:32:35;10.13;;;8.60;;
84121;SDS011;74217;51.106;17.084;2023-12-20T00:35:20;11.98;;;9.05;;
84121;SDS011;74217;51.106;17.084;2023-12-20T00:38:04;12.10;;;7.90;;
84121;SDS011;74217;51.106;17.084;2023-12-20T00:40:51;10.82;;;8.15;;
84121;SDS011;74217;51.106;17.084;2023-12-20T00:43:36;12.25;;;8.48;;
84121;SDS011;74217;51.106;17.084;2023-12-20T00:46:20;12.23;;;8.77;;
84121;SDS011;74217;51.106;17.084;2023-12-20T00:49:05;13.05;;;8.35;;
84121;SDS011;74217;51.106;17.084;2023-12-20T00:51:49;9.75;;;8.45;;
84121;SDS011;74217;51.106;17.084;2023-12-20T00:54:35;10.10;;;7.93;;
84121;SDS011;74217;51.106;17.084;2023-12-20T00:57:20;9.63;;;7.32;;
84121;SDS011;74217;51.106;17.084;2023-12-20T01:00:05;12.68;;;8.95;;
84121;SDS011;74217;51.106;17.084;2023-12-20T01:02:50;12.02;;;9.75;;
84121;SDS011;74217;51.106;17.084;2023-12-20T01:05:35;10.23;;;9.07;;
84121;SDS011;74217;51.106;17.084;2023-12-20T01:08:20;12.48;;;9.15;;
84121;SDS011;74217;51.106;17.084;2023-12-20T01:11:05;10.77;;;9.27;;
84121;SDS011;74217;51.106;17.084;2023-12-20T01:13:50;11.40;;;8.32;;
84121;SDS011;74217;51.106;17.084;2023-12-20T01:16:34;11.45;;;8.63;;
84121;SDS011;74217;51.106;17.084;2023-12-20T01:19:19;11.75;;;8.57;;
84121;SDS011;74217;51.106;17.084;2023-12-20T01:22:03;13.50;;;8.95;;
84121;SDS011;74217;51.106;17.084;2023-12-20T01:24:49;11.27;;;9.02;;
84121;SDS011;74217;51.106;17.084;2023-12-20T01:27:34;11.13;;;8.43;;
84121;SDS011;74217;51.106;17.084;2023-12-20T01:30:19;13.10;;;8.98;;
84121;SDS011;74217;51.106;17.084;2023-12-20T01:33:03;10.88;;;7.78;;
84121;SDS011;74217;51.106;17.084;2023-12-20T01:35:48;11.43;;;8.07;;
84121;SDS011;74217;51.106;17.084;2023-12-20T01:38:33;11.45;;;7.70;;
84121;SDS011;74217;51.106;17.084;2023-12-20T01:41:17;10.32;;;8.52;;
84121;SDS011;74217;51.106;17.084;2023-12-20T01:44:02;9.80;;;7.45;;
84121;SDS011;74217;51.106;17.084;2023-12-20T01:46:46;9.77;;;8.00;;
84121;SDS011;74217;51.106;17.084;2023-12-20T01:49:32;9.30;;;7.40;;
84121;SDS011;74217;51.106;17.084;2023-12-20T01:52:17;12.93;;;8.15;;
84121;SDS011;74217;51.106;17.084;2023-12-20T01:55:03;10.07;;;7.63;;
84121;SDS011;74217;51.106;17.084;2023-12-20T01:57:55;10.90;;;7.78;;
84121;SDS011;74217;51.106;17.084;2023-12-20T02:00:41;8.40;;;6.43;;
84121;SDS011;74217;51.106;17.084;2023-12-20T02:03:26;11.02;;;8.25;;
84121;SDS011;74217;51.106;17.084;2023-12-20T02:06:11;8.93;;;7.07;;
84121;SDS011;74217;51.106;17.084;2023-12-20T02:08:56;9.57;;;6.90;;
84121;SDS011;74217;51.106;17.084;2023-12-20T02:11:41;9.82;;;6.97;;
84121;SDS011;74217;51.106;17.084;2023-12-20T02:14:26;8.45;;;7.28;;
84121;SDS011;74217;51.106;17.084;2023-12-20T02:17:11;9.43;;;6.63;;
84121;SDS011;74217;51.106;17.084;2023-12-20T02:19:56;8.38;;;6.93;;
84121;SDS011;74217;51.106;17.084;2023-12-20T02:22:40;7.90;;;5.57;;
84121;SDS011;74217;51.106;17.084;2023-12-20T02:25:25;6.65;;;5.93;;
84121;SDS011;74217;51.106;17.084;2023-12-20T02:28:10;8.65;;;6.30;;
84121;SDS011;74217;51.106;17.084;2023-12-20T02:30:55;7.95;;;6.22;;
84121;SDS011;74217;51.106;17.084;2023-12-20T02:33:39;7.55;;;5.38;;
84121;SDS011;74217;51.106;17.084;2023-12-20T02:36:26;8.43;;;5.95;;
84121;SDS011;74217;51.106;17.084;2023-12-20T02:39:10;6.05;;;4.88;;
84121;SDS011;74217;51.106;17.084;2023-12-20T02:41:55;5.90;;;5.25;;
84121;SDS011;74217;51.106;17.084;2023-12-20T02:44:39;6.15;;;4.78;;
84121;SDS011;74217;51.106;17.084;2023-12-20T02:47:24;6.40;;;4.97;;
84121;SDS011;74217;51.106;17.084;2023-12-20T02:50:09;5.45;;;4.45;;
84121;SDS011;74217;51.106;17.084;2023-12-20T02:52:53;4.75;;;4.25;;
84121;SDS011;74217;51.106;17.084;2023-12-20T02:55:37;5.25;;;3.92;;
84121;SDS011;74217;51.106;17.084;2023-12-20T02:58:22;6.55;;;4.20;;
84121;SDS011;74217;51.106;17.084;2023-12-20T03:01:07;5.32;;;4.65;;
84121;SDS011;74217;51.106;17.084;2023-12-20T03:03:51;5.18;;;3.90;;
84121;SDS011;74217;51.106;17.084;2023-12-20T03:06:35;4.60;;;3.40;;
84121;SDS011;74217;51.106;17.084;2023-12-20T03:09:20;4.68;;;4.25;;
84121;SDS011;74217;51.106;17.084;2023-12-20T03:12:05;4.65;;;3.85;;
84121;SDS011;74217;51.106;17.084;2023-12-20T03:14:50;5.82;;;4.95;;
84121;SDS011;74217;51.106;17.084;2023-12-20T03:17:34;5.93;;;4.18;;
84121;SDS011;74217;51.106;17.084;2023-12-20T03:20:19;3.97;;;3.45;;
84121;SDS011;74217;51.106;17.084;2023-12-20T03:23:03;5.28;;;3.70;;
84121;SDS011;74217;51.106;17.084;2023-12-20T03:25:48;4.18;;;3.65;;
84121;SDS011;74217;51.106;17.084;2023-12-20T03:28:33;4.70;;;3.75;;
84121;SDS011;74217;51.106;17.084;2023-12-20T03:31:18;4.43;;;3.97;;
84121;SDS011;74217;51.106;17.084;2023-12-20T03:34:03;4.50;;;3.83;;
84121;SDS011;74217;51.106;17.084;2023-12-20T03:36:48;4.05;;;3.63;;
84121;SDS011;74217;51.106;17.084;2023-12-20T03:39:33;4.20;;;3.33;;
84121;SDS011;74217;51.106;17.084;2023-12-20T03:42:17;3.63;;;3.28;;
84121;SDS011;74217;51.106;17.084;2023-12-20T03:45:02;4.45;;;4.15;;
84121;SDS011;74217;51.106;17.084;2023-12-20T03:47:47;3.33;;;2.42;;
84121;SDS011;74217;51.106;17.084;2023-12-20T03:50:32;3.30;;;2.75;;
84121;SDS011;74217;51.106;17.084;2023-12-20T03:53:17;2.53;;;2.28;;
84121;SDS011;74217;51.106;17.084;2023-12-20T03:56:01;2.75;;;2.20;;
84121;SDS011;74217;51.106;17.084;2023-12-20T03:58:46;2.70;;;2.50;;
84121;SDS011;74217;51.106;17.084;2023-12-20T04:01:31;2.15;;;1.95;;
84121;SDS011;74217;51.106;17.084;2023-12-20T04:04:15;2.78;;;2.55;;
84121;SDS011;74217;51.106;17.084;2023-12-20T04:07:00;3.88;;;2.53;;
84121;SDS011;74217;51.106;17.084;2023-12-20T04:09:44;3.20;;;2.50;;
84121;SDS011;74217;51.106;17.084;2023-12-20T04:12:29;2.40;;;2.20;;
84121;SDS011;74217;51.106;17.084;2023-12-20T04:15:14;2.28;;;2.08;;
84121;SDS011;74217;51.106;17.084;2023-12-20T04:17:58;2.83;;;2.63;;
84121;SDS011;74217;51.106;17.084;2023-12-20T04:20:43;2.70;;;2.50;;
84121;SDS011;74217;51.106;17.084;2023-12-20T04:23:27;2.55;;;2.35;;
84121;SDS011;74217;51.106;17.084;2023-12-20T04:26:12;2.20;;;1.83;;
84121;SDS011;74217;51.106;17.084;2023-12-20T04:28:56;2.42;;;2.08;;
84121;SDS011;74217;51.106;17.084;2023-12-20T04:31:41;2.55;;;2.35;;
84121;SDS011;74217;51.106;17.084;2023-12-20T04:34:25;2.28;;;2.08;;
84121;SDS011;74217;51.106;17.084;2023-12-20T04:37:10;3.78;;;2.92;;
84121;SDS011;74217;51.106;17.084;2023-12-20T04:39:56;2.65;;;2.45;;
84121;SDS011;74217;51.106;17.084;2023-12-20T04:42:41;3.08;;;2.33;;
84121;SDS011;74217;51.106;17.084;2023-12-20T04:45:25;2.92;;;2.42;;
84121;SDS011;74217;51.106;17.084;2023-12-20T04:48:10;2.63;;;2.42;;
84121;SDS011;74217;51.106;17.084;2023-12-20T04:50:55;2.70;;;2.47;;
84121;SDS011;74217;51.106;17.084;2023-12-20T04:53:39;2.50;;;2.30;;
84121;SDS011;74217;51.106;17.084;2023-12-20T04:56:24;2.67;;;2.22;;
84121;SDS011;74217;51.106;17.084;2023-12-20T04:59:08;2.88;;;2.67;;
84121;SDS011;74217;51.106;17.084;2023-12-20T05:01:53;2.45;;;2.25;;
84121;SDS011;74217;51.106;17.084;2023-12-20T05:04:37;3.28;;;3.08;;
84121;SDS011;74217;51.106;17.084;2023-12-20T05:07:22;2.70;;;2.40;;
84121;SDS011;74217;51.106;17.084;2023-12-20T05:10:06;5.43;;;2.30;;
84121;SDS011;74217;51.106;17.084;2023-12-20T05:12:54;2.80;;;2.42;;
84121;SDS011;74217;51.106;17.084;2023-12-20T05:15:38;2.17;;;1.88;;
84121;SDS011;74217;51.106;17.084;2023-12-20T05:18:23;2.33;;;2.05;;
84121;SDS011;74217;51.106;17.084;2023-12-20T05:21:07;2.65;;;2.38;;
84121;SDS011;74217;51.106;17.084;2023-12-20T05:23:52;2.80;;;2.00;;
84121;SDS011;74217;51.106;17.084;2023-12-20T05:26:37;2.28;;;2.15;;
84121;SDS011;74217;51.106;17.084;2023-12-20T05:29:21;2.50;;;2.33;;
84121;SDS011;74217;51.106;17.084;2023-12-20T05:32:06;2.35;;;2.15;;
84121;SDS011;74217;51.106;17.084;2023-12-20T05:34:51;2.45;;;2.25;;
84121;SDS011;74217;51.106;17.084;2023-12-20T05:37:36;2.50;;;2.10;;
84121;SDS011;74217;51.106;17.084;2023-12-20T05:40:20;2.38;;;2.13;;
84121;SDS011;74217;51.106;17.084;2023-12-20T05:43:05;2.60;;;2.40;;
84121;SDS011;74217;51.106;17.084;2023-12-20T05:45:50;2.75;;;2.55;;
84121;SDS011;74217;51.106;17.084;2023-12-20T05:48:35;3.10;;;2.80;;
84121;SDS011;74217;51.106;17.084;2023-12-20T05:51:19;2.33;;;2.13;;
84121;SDS011;74217;51.106;17.084;2023-12-20T05:54:03;2.53;;;2.33;;
84121;SDS011;74217;51.106;17.084;2023-12-20T05:56:48;2.55;;;2.35;;
84121;SDS011;74217;51.106;17.084;2023-12-20T05:59:33;2.92;;;2.72;;
84121;SDS011;74217;51.106;17.084;2023-12-20T06:02:17;3.40;;;3.10;;
84121;SDS011;74217;51.106;17.084;2023-12-20T06:05:03;3.60;;;2.70;;
84121;SDS011;74217;51.106;17.084;2023-12-20T06:10:35;3.35;;;2.50;;
84121;SDS011;74217;51.106;17.084;2023-12-20T06:13:20;3.05;;;2.72;;
84121;SDS011;74217;51.106;17.084;2023-12-20T06:16:05;3.28;;;2.83;;
84121;SDS011;74217;51.106;17.084;2023-12-20T06:18:51;3.58;;;3.28;;
84121;SDS011;74217;51.106;17.084;2023-12-20T06:21:36;3.63;;;3.33;;
84121;SDS011;74217;51.106;17.084;2023-12-20T06:24:21;2.85;;;2.50;;
84121;SDS011;74217;51.106;17.084;2023-12-20T06:27:06;3.08;;;2.45;;
84121;SDS011;74217;51.106;17.084;2023-12-20T06:29:52;5.28;;;2.85;;
84121;SDS011;74217;51.106;17.084;2023-12-20T06:32:39;3.78;;;2.85;;
84121;SDS011;74217;51.106;17.084;2023-12-20T06:35:27;4.28;;;3.55;;
84121;SDS011;74217;51.106;17.084;2023-12-20T06:38:15;3.45;;;3.00;;
84121;SDS011;74217;51.106;17.084;2023-12-20T06:41:03;3.78;;;3.28;;
84121;SDS011;74217;51.106;17.084;2023-12-20T06:43:50;3.83;;;3.47;;
84121;SDS011;74217;51.106;17.084;2023-12-20T06:46:38;4.07;;;3.22;;
84121;SDS011;74217;51.106;17.084;2023-12-20T06:49:28;3.25;;;2.67;;
84121;SDS011;74217;51.106;17.084;2023-12-20T06:52:15;3.10;;;2.50;;
84121;SDS011;74217;51.106;17.084;2023-12-20T06:55:03;3.00;;;2.80;;
84121;SDS011;74217;51.106;17.084;2023-12-20T06:57:50;3.60;;;2.72;;
84121;SDS011;74217;51.106;17.084;2023-12-20T07:00:37;2.58;;;2.17;;
84121;SDS011;74217;51.106;17.084;2023-12-20T07:03:23;3.03;;;2.45;;
84121;SDS011;74217;51.106;17.084;2023-12-20T07:06:09;3.05;;;2.75;;
84121;SDS011;74217;51.106;17.084;2023-12-20T07:08:54;3.20;;;2.90;;
84121;SDS011;74217;51.106;17.084;2023-12-20T07:11:40;4.18;;;2.88;;
84121;SDS011;74217;51.106;17.084;2023-12-20T07:14:25;2.45;;;2.25;;
84121;SDS011;74217;51.106;17.084;2023-12-20T07:17:10;2.88;;;2.67;;
84121;SDS011;74217;51.106;17.084;2023-12-20T07:22:42;3.35;;;2.88;;
84121;SDS011;74217;51.106;17.084;2023-12-20T07:25:26;2.65;;;2.45;;
84121;SDS011;74217;51.106;17.084;2023-12-20T07:28:11;4.07;;;3.67;;
84121;SDS011;74217;51.106;17.084;2023-12-20T07:30:55;2.83;;;2.28;;
84121;SDS011;74217;51.106;17.084;2023-12-20T07:33:40;2.40;;;2.20;;
84121;SDS011;74217;51.106;17.084;2023-12-20T07:36:26;2.20;;;2.00;;
84121;SDS011;74217;51.106;17.084;2023-12-20T07:39:11;2.47;;;2.28;;
84121;SDS011;74217;51.106;17.084;2023-12-20T07:41:55;2.45;;;2.20;;
84121;SDS011;74217;51.106;17.084;2023-12-20T07:44:40;4.10;;;2.58;;
84121;SDS011;74217;51.106;17.084;2023-12-20T07:47:25;2.78;;;2.38;;
84121;SDS011;74217;51.106;17.084;2023-12-20T07:50:10;2.85;;;2.33;;
84121;SDS011;74217;51.106;17.084;2023-12-20T07:52:54;3.03;;;2.38;;
84121;SDS011;74217;51.106;17.084;2023-12-20T07:55:39;2.35;;;2.15;;
84121;SDS011;74217;51.106;17.084;2023-12-20T07:58:23;2.63;;;2.38;;
84121;SDS011;74217;51.106;17.084;2023-12-20T08:01:09;3.47;;;2.33;;
84121;SDS011;74217;51.106;17.084;2023-12-20T08:03:54;2.42;;;2.17;;
84121;SDS011;74217;51.106;17.084;2023-12-20T08:06:39;2.10;;;1.85;;
84121;SDS011;74217;51.106;17.084;2023-12-20T08:09:24;3.75;;;2.25;;
84121;SDS011;74217;51.106;17.084;2023-12-20T08:12:08;2.92;;;2.22;;
84121;SDS011;74217;51.106;17.084;2023-12-20T08:14:53;2.05;;;1.83;;
84121;SDS011;74217;51.106;17.084;2023-12-20T08:17:39;3.08;;;2.03;;
84121;SDS011;74217;51.106;17.084;2023-12-20T08:20:23;2.88;;;2.30;;
84121;SDS011;74217;51.106;17.084;2023-12-20T08:23:07;2.08;;;1.88;;
84121;SDS011;74217;51.106;17.084;2023-12-20T08:25:52;2.88;;;2.22;;
84121;SDS011;74217;51.106;17.084;2023-12-20T08:28:37;2.78;;;1.98;;
84121;SDS011;74217;51.106;17.084;2023-12-20T08:31:21;2.22;;;1.83;;
84121;SDS011;74217;51.106;17.084;2023-12-20T08:34:06;6.80;;;2.10;;
84121;SDS011;74217;51.106;17.084;2023-12-20T08:36:50;4.13;;;2.22;;
84121;SDS011;74217;51.106;17.084;2023-12-20T08:39:38;2.90;;;2.33;;
84121;SDS011;74217;51.106;17.084;2023-12-20T08:42:22;6.70;;;2.35;;
84121;SDS011;74217;51.106;17.084;2023-12-20T08:45:08;3.05;;;2.50;;
84121;SDS011;74217;51.106;17.084;2023-12-20T08:47:53;3.35;;;2.22;;
84121;SDS011;74217;51.106;17.084;2023-12-20T08:50:37;3.35;;;2.10;;
84121;SDS011;74217;51.106;17.084;2023-12-20T08:53:22;3.50;;;3.13;;
84121;SDS011;74217;51.106;17.084;2023-12-20T08:56:07;3.63;;;2.20;;
84121;SDS011;74217;51.106;17.084;2023-12-20T08:58:52;2.47;;;2.15;;
84121;SDS011;74217;51.106;17.084;2023-12-20T09:01:36;2.53;;;2.03;;
84121;SDS011;74217;51.106;17.084;2023-12-20T09:04:21;2.70;;;1.83;;
84121;SDS011;74217;51.106;17.084;2023-12-20T09:07:05;3.03;;;2.72;;
84121;SDS011;74217;51.106;17.084;2023-12-20T09:09:52;2.63;;;2.42;;
84121;SDS011;74217;51.106;17.084;2023-12-20T09:12:37;3.47;;;2.30;;
84121;SDS011;74217;51.106;17.084;2023-12-20T09:15:24;2.35;;;2.15;;
84121;SDS011;74217;51.106;17.084;2023-12-20T09:18:10;2.63;;;2.20;;
84121;SDS011;74217;51.106;17.084;2023-12-20T09:20:55;2.40;;;2.20;;
84121;SDS011;74217;51.106;17.084;2023-12-20T09:23:39;2.42;;;2.22;;
84121;SDS011;74217;51.106;17.084;2023-12-20T09:26:23;2.28;;;2.03;;
84121;SDS011;74217;51.106;17.084;2023-12-20T09:29:08;2.92;;;2.70;;
84121;SDS011;74217;51.106;17.084;2023-12-20T09:31:54;2.67;;;2.13;;
84121;SDS011;74217;51.106;17.084;2023-12-20T09:34:39;3.15;;;2.85;;
84121;SDS011;74217;51.106;17.084;2023-12-20T09:37:26;4.18;;;2.30;;
84121;SDS011;74217;51.106;17.084;2023-12-20T09:40:12;3.20;;;2.78;;
84121;SDS011;74217;51.106;17.084;2023-12-20T09:42:57;4.07;;;2.55;;
84121;SDS011;74217;51.106;17.084;2023-12-20T09:45:48;2.80;;;2.58;;
84121;SDS011;74217;51.106;17.084;2023-12-20T09:48:33;3.30;;;2.45;;
84121;SDS011;74217;51.106;17.084;2023-12-20T09:51:21;2.55;;;2.35;;
84121;SDS011;74217;51.106;17.084;2023-12-20T09:54:06;2.95;;;2.38;;
84121;SDS011;74217;51.106;17.084;2023-12-20T09:56:51;3.22;;;2.92;;
84121;SDS011;74217;51.106;17.084;2023-12-20T09:59:35;2.88;;;2.67;;
84121;SDS011;74217;51.106;17.084;2023-12-20T10:02:20;3.50;;;2.70;;
84121;SDS011;74217;51.106;17.084;2023-12-20T10:05:08;2.60;;;2.08;;
84121;SDS011;74217;51.106;17.084;2023-12-20T10:08:01;4.00;;;2.95;;
84121;SDS011;74217;51.106;17.084;2023-12-20T10:10:46;3.38;;;3.08;;
84121;SDS011;74217;51.106;17.084;2023-12-20T10:13:31;3.20;;;2.90;;
84121;SDS011;74217;51.106;17.084;2023-12-20T10:16:15;2.85;;;2.63;;
84121;SDS011;74217;51.106;17.084;2023-12-20T10:19:00;3.55;;;2.95;;
84121;SDS011;74217;51.106;17.084;2023-12-20T10:21:45;3.25;;;2.67;;
84121;SDS011;74217;51.106;17.084;2023-12-20T10:24:30;3.13;;;2.78;;
84121;SDS011;74217;51.106;17.084;2023-12-20T10:27:15;3.80;;;2.70;;
84121;SDS011;74217;51.106;17.084;2023-12-20T10:30:03;4.00;;;2.75;;
84121;SDS011;74217;51.106;17.084;2023-12-20T10:32:48;2.95;;;2.60;;
84121;SDS011;74217;51.106;17.084;2023-12-20T10:35:34;6.00;;;3.33;;
84121;SDS011;74217;51.106;17.084;2023-12-20T10:38:21;3.88;;;3.17;;
84121;SDS011;74217;51.106;17.084;2023-12-20T10:41:06;5.13;;;2.90;;
84121;SDS011;74217;51.106;17.084;2023-12-20T10:43:53;4.78;;;3.58;;
84121;SDS011;74217;51.106;17.084;2023-12-20T10:46:39;4.70;;;3.05;;
84121;SDS011;74217;51.106;17.084;2023-12-20T10:49:25;3.25;;;2.95;;
84121;SDS011;74217;51.106;17.084;2023-12-20T10:52:12;3.38;;;2.83;;
84121;SDS011;74217;51.106;17.084;2023-12-20T10:54:57;7.72;;;3.67;;
84121;SDS011;74217;51.106;17.084;2023-12-20T10:57:43;3.83;;;2.83;;
84121;SDS011;74217;51.106;17.084;2023-12-20T11:00:39;6.50;;;3.58;;
84121;SDS011;74217;51.106;17.084;2023-12-20T11:03:27;4.35;;;3.42;;
84121;SDS011;74217;51.106;17.084;2023-12-20T11:06:43;3.70;;;2.47;;
84121;SDS011;74217;51.106;17.084;2023-12-20T11:09:35;6.15;;;3.42;;
84121;SDS011;74217;51.106;17.084;2023-12-20T11:12:29;6.72;;;3.10;;
84121;SDS011;74217;51.106;17.084;2023-12-20T11:15:20;4.97;;;2.95;;
84121;SDS011;74217;51.106;17.084;2023-12-20T11:18:05;3.97;;;2.80;;
84121;SDS011;74217;51.106;17.084;2023-12-20T11:20:50;5.75;;;3.25;;
84121;SDS011;74217;51.106;17.084;2023-12-20T11:23:35;4.63;;;3.03;;
84121;SDS011;74217;51.106;17.084;2023-12-20T11:26:27;5.60;;;4.05;;
84121;SDS011;74217;51.106;17.084;2023-12-20T11:35:16;5.68;;;3.25;;
84121;SDS011;74217;51.106;17.084;2023-12-20T11:38:03;4.28;;;2.90;;
84121;SDS011;74217;51.106;17.084;2023-12-20T11:40:49;3.70;;;2.75;;
84121;SDS011;74217;51.106;17.084;2023-12-20T11:43:38;4.65;;;3.10;;
84121;SDS011;74217;51.106;17.084;2023-12-20T11:46:23;3.35;;;2.72;;
84121;SDS011;74217;51.106;17.084;2023-12-20T11:49:08;2.97;;;1.98;;
84121;SDS011;74217;51.106;17.084;2023-12-20T11:51:52;7.35;;;2.97;;
84121;SDS011;74217;51.106;17.084;2023-12-20T11:54:37;2.53;;;1.92;;
84121;SDS011;74217;51.106;17.084;2023-12-20T11:57:21;4.80;;;2.20;;
84121;SDS011;74217;51.106;17.084;2023-12-20T12:00:06;5.15;;;2.80;;
84121;SDS011;74217;51.106;17.084;2023-12-20T12:03:00;4.63;;;2.20;;
84121;SDS011;74217;51.106;17.084;2023-12-20T12:05:47;4.38;;;2.25;;
84121;SDS011;74217;51.106;17.084;2023-12-20T12:08:32;4.15;;;2.22;;
84121;SDS011;74217;51.106;17.084;2023-12-20T12:11:16;2.50;;;2.10;;
84121;SDS011;74217;51.106;17.084;2023-12-20T12:14:01;3.47;;;2.25;;
84121;SDS011;74217;51.106;17.084;2023-12-20T12:16:46;3.97;;;2.55;;
84121;SDS011;74217;51.106;17.084;2023-12-20T12:19:30;3.00;;;2.17;;
84121;SDS011;74217;51.106;17.084;2023-12-20T12:22:20;3.35;;;2.53;;
84121;SDS011;74217;51.106;17.084;2023-12-20T12:25:10;3.70;;;2.53;;
84121;SDS011;74217;51.106;17.084;2023-12-20T12:27:59;5.13;;;2.10;;
84121;SDS011;74217;51.106;17.084;2023-12-20T12:30:55;5.43;;;2.28;;
84121;SDS011;74217;51.106;17.084;2023-12-20T12:33:41;4.03;;;2.13;;
84121;SDS011;74217;51.106;17.084;2023-12-20T12:36:26;2.83;;;2.05;;
84121;SDS011;74217;51.106;17.084;2023-12-20T12:39:13;4.20;;;2.03;;
84121;SDS011;74217;51.106;17.084;2023-12-20T12:42:01;3.08;;;2.78;;
84121;SDS011;74217;51.106;17.084;2023-12-20T12:44:46;4.05;;;2.30;;
84121;SDS011;74217;51.106;17.084;2023-12-20T12:47:31;3.70;;;2.47;;
84121;SDS011;74217;51.106;17.084;2023-12-20T12:50:16;5.10;;;2.55;;
84121;SDS011;74217;51.106;17.084;2023-12-20T12:53:01;4.15;;;2.70;;
84121;SDS011;74217;51.106;17.084;2023-12-20T12:55:47;3.67;;;2.35;;
84121;SDS011;74217;51.106;17.084;2023-12-20T12:58:31;5.43;;;2.42;;
84121;SDS011;74217;51.106;17.084;2023-12-20T13:04:02;4.72;;;2.28;;
84121;SDS011;74217;51.106;17.084;2023-12-20T13:06:50;2.72;;;2.05;;
84121;SDS011;74217;51.106;17.084;2023-12-20T13:09:36;4.22;;;2.58;;
84121;SDS011;74217;51.106;17.084;2023-12-20T13:12:20;3.15;;;2.47;;
84121;SDS011;74217;51.106;17.084;2023-12-20T13:15:05;2.88;;;2.40;;
84121;SDS011;74217;51.106;17.084;2023-12-20T13:17:50;4.35;;;2.38;;
84121;SDS011;74217;51.106;17.084;2023-12-20T13:20:35;5.32;;;2.63;;
84121;SDS011;74217;51.106;17.084;2023-12-20T13:23:19;4.60;;;2.45;;
84121;SDS011;74217;51.106;17.084;2023-12-20T13:26:04;4.15;;;2.15;;
84121;SDS011;74217;51.106;17.084;2023-12-20T13:28:49;2.25;;;2.00;;
84121;SDS011;74217;51.106;17.084;2023-12-20T13:31:34;7.28;;;3.38;;
84121;SDS011;74217;51.106;17.084;2023-12-20T13:37:05;3.20;;;2.33;;
84121;SDS011;74217;51.106;17.084;2023-12-20T13:39:50;3.22;;;2.25;;
84121;SDS011;74217;51.106;17.084;2023-12-20T13:42:34;5.90;;;2.63;;
84121;SDS011;74217;51.106;17.084;2023-12-20T13:45:20;5.10;;;2.30;;
84121;SDS011;74217;51.106;17.084;2023-12-20T13:48:04;3.83;;;2.13;;
84121;SDS011;74217;51.106;17.084;2023-12-20T13:50:49;4.28;;;2.90;;
84121;SDS011;74217;51.106;17.084;2023-12-20T13:53:34;7.25;;;3.17;;
84121;SDS011;74217;51.106;17.084;2023-12-20T13:56:19;4.97;;;2.47;;
84121;SDS011;74217;51.106;17.084;2023-12-20T13:59:03;6.43;;;2.25;;
84121;SDS011;74217;51.106;17.084;2023-12-20T14:01:48;6.63;;;2.45;;
84121;SDS011;74217;51.106;17.084;2023-12-20T14:04:34;9.80;;;2.40;;
84121;SDS011;74217;51.106;17.084;2023-12-20T14:07:20;3.15;;;2.05;;
84121;SDS011;74217;51.106;17.084;2023-12-20T14:10:05;8.50;;;2.88;;
84121;SDS011;74217;51.106;17.084;2023-12-20T14:12:50;7.20;;;2.67;;
84121;SDS011;74217;51.106;17.084;2023-12-20T14:15:35;5.55;;;2.30;;
84121;SDS011;74217;51.106;17.084;2023-12-20T14:18:21;8.63;;;2.75;;
84121;SDS011;74217;51.106;17.084;2023-12-20T14:21:06;5.15;;;2.80;;
84121;SDS011;74217;51.106;17.084;2023-12-20T14:23:50;5.57;;;2.28;;
84121;SDS011;74217;51.106;17.084;2023-12-20T14:26:36;4.80;;;2.72;;
84121;SDS011;74217;51.106;17.084;2023-12-20T14:29:21;3.40;;;2.35;;
84121;SDS011;74217;51.106;17.084;2023-12-20T14:32:06;6.93;;;2.72;;
84121;SDS011;74217;51.106;17.084;2023-12-20T14:34:51;6.63;;;2.67;;
84121;SDS011;74217;51.106;17.084;2023-12-20T14:37:36;5.47;;;2.70;;
84121;SDS011;74217;51.106;17.084;2023-12-20T14:40:25;4.38;;;2.70;;
84121;SDS011;74217;51.106;17.084;2023-12-20T14:43:09;3.58;;;2.38;;
84121;SDS011;74217;51.106;17.084;2023-12-20T14:45:54;4.40;;;2.33;;
84121;SDS011;74217;51.106;17.084;2023-12-20T14:48:39;4.78;;;2.55;;
84121;SDS011;74217;51.106;17.084;2023-12-20T14:51:26;3.53;;;2.33;;
84121;SDS011;74217;51.106;17.084;2023-12-20T14:54:10;3.78;;;2.25;;
84121;SDS011;74217;51.106;17.084;2023-12-20T14:56:57;6.05;;;3.42;;
84121;SDS011;74217;51.106;17.084;2023-12-20T14:59:42;5.00;;;2.92;;
84121;SDS011;74217;51.106;17.084;2023-12-20T15:02:27;5.60;;;2.88;;
84121;SDS011;74217;51.106;17.084;2023-12-20T15:05:12;6.25;;;3.00;;
84121;SDS011;74217;51.106;17.084;2023-12-20T15:10:43;6.20;;;3.35;;
84121;SDS011;74217;51.106;17.084;2023-12-20T15:13:28;6.32;;;3.35;;
84121;SDS011;74217;51.106;17.084;2023-12-20T15:16:13;4.85;;;2.72;;
84121;SDS011;74217;51.106;17.084;2023-12-20T15:18:58;5.18;;;2.75;;
84121;SDS011;74217;51.106;17.084;2023-12-20T15:21:42;8.18;;;4.88;;
84121;SDS011;74217;51.106;17.084;2023-12-20T15:24:27;5.03;;;3.40;;
84121;SDS011;74217;51.106;17.084;2023-12-20T15:27:21;10.95;;;5.07;;
84121;SDS011;74217;51.106;17.084;2023-12-20T15:30:06;8.88;;;5.32;;
84121;SDS011;74217;51.106;17.084;2023-12-20T15:32:53;4.47;;;3.30;;
84121;SDS011;74217;51.106;17.084;2023-12-20T15:35:38;4.10;;;2.90;;
84121;SDS011;74217;51.106;17.084;2023-12-20T15:38:23;4.43;;;2.60;;
84121;SDS011;74217;51.106;17.084;2023-12-20T15:41:07;7.78;;;3.25;;
84121;SDS011;74217;51.106;17.084;2023-12-20T15:43:52;3.45;;;3.15;;
84121;SDS011;74217;51.106;17.084;2023-12-20T15:46:37;3.65;;;2.55;;
84121;SDS011;74217;51.106;17.084;2023-12-20T15:49:22;6.10;;;3.08;;
84121;SDS011;74217;51.106;17.084;2023-12-20T15:52:07;3.58;;;2.97;;
84121;SDS011;74217;51.106;17.084;2023-12-20T15:54:52;5.53;;;4.47;;
84121;SDS011;74217;51.106;17.084;2023-12-20T15:57:38;4.97;;;2.95;;
84121;SDS011;74217;51.106;17.084;2023-12-20T16:00:23;11.25;;;3.70;;
84121;SDS011;74217;51.106;17.084;2023-12-20T16:03:08;6.18;;;3.50;;
84121;SDS011;74217;51.106;17.084;2023-12-20T16:05:53;5.65;;;3.92;;
84121;SDS011;74217;51.106;17.084;2023-12-20T16:08:40;6.35;;;4.05;;
84121;SDS011;74217;51.106;17.084;2023-12-20T16:11:25;5.53;;;3.10;;
84121;SDS011;74217;51.106;17.084;2023-12-20T16:14:10;4.78;;;3.33;;
84121;SDS011;74217;51.106;17.084;2023-12-20T16:16:57;5.38;;;3.15;;
84121;SDS011;74217;51.106;17.084;2023-12-20T16:19:43;6.53;;;3.53;;
84121;SDS011;74217;51.106;17.084;2023-12-20T16:22:27;7.35;;;3.10;;
84121;SDS011;74217;51.106;17.084;2023-12-20T16:25:12;8.50;;;4.32;;
84121;SDS011;74217;51.106;17.084;2023-12-20T16:27:57;5.43;;;3.05;;
84121;SDS011;74217;51.106;17.084;2023-12-20T16:30:42;6.03;;;3.97;;
84121;SDS011;74217;51.106;17.084;2023-12-20T16:33:26;8.98;;;4.13;;
84121;SDS011;74217;51.106;17.084;2023-12-20T16:36:12;4.05;;;3.28;;
84121;SDS011;74217;51.106;17.084;2023-12-20T16:38:56;5.72;;;3.50;;
84121;SDS011;74217;51.106;17.084;2023-12-20T16:41:41;6.13;;;4.32;;